Time;durP1;ratioP1;P1;durP2;ratioP2;P2;SDS_P1;SDS_P2;PMS_P1;PMS_P2;Temp;Humidity;BMP_temperature;BMP_pressure;BME280_temperature;BME280_humidity;BME280_pressure;Samples;Min_cycle;Max_cycle;Signal;HPM_P1;HPM_P2
2022/12/10 00:02:01;;;;;;;73.00;42.90;;;;;;;1.68;82.01;99616.39;104468;1332;37496;-71
2022/12/10 00:04:35;;;;;;;71.50;40.60;;;;;;;1.71;82.31;99617.72;104466;1332;37557;-71
2022/12/10 00:07:09;;;;;;;63.50;38.40;;;;;;;1.69;82.03;99610.02;104472;1333;37378;-71
2022/12/10 00:09:43;;;;;;;69.90;40.50;;;;;;;1.68;82.18;99612.79;104488;1330;37282;-71
2022/12/10 00:12:17;;;;;;;68.10;41.70;;;;;;;1.68;82.02;99609.52;104607;1330;37928;-71
2022/12/10 00:14:50;;;;;;;70.70;41.90;;;;;;;1.73;82.34;99609.11;104484;1333;37011;-71
2022/12/10 00:17:24;;;;;;;76.60;44.20;;;;;;;1.75;82.27;99605.63;104596;1333;36549;-71
2022/12/10 00:19:58;;;;;;;72.40;41.10;;;;;;;1.75;82.07;99608.90;104476;1332;37141;-71
2022/12/10 00:22:32;;;;;;;70.40;41.30;;;;;;;1.69;81.93;99606.23;104476;1333;37973;-71
2022/12/10 00:25:07;;;;;;;72.50;42.30;;;;;;;1.65;82.07;99605.60;104343;1333;172240;-71
2022/12/10 00:27:41;;;;;;;69.30;40.70;;;;;;;1.70;82.28;99607.59;104597;1333;37125;-72
2022/12/10 00:30:16;;;;;;;69.80;40.90;;;;;;;1.74;82.21;99609.95;104468;1333;37462;-72
2022/12/10 00:32:50;;;;;;;73.50;42.20;;;;;;;1.77;82.25;99608.53;104479;1332;36501;-72
2022/12/10 00:35:24;;;;;;;71.20;42.10;;;;;;;1.73;81.91;99604.97;104450;1332;37274;-72
2022/12/10 00:37:58;;;;;;;70.50;39.50;;;;;;;1.65;81.92;99601.98;104630;1332;37172;-72
2022/12/10 00:40:33;;;;;;;68.40;40.60;;;;;;;1.58;81.99;99603.98;104475;1333;37229;-71
2022/12/10 00:43:07;;;;;;;68.60;40.80;;;;;;;1.57;82.18;99606.57;104490;1333;38310;-71
2022/12/10 00:45:41;;;;;;;66.00;39.60;;;;;;;1.60;82.23;99605.16;104449;1333;37237;-71
2022/12/10 00:48:15;;;;;;;71.20;43.20;;;;;;;1.61;82.13;99606.52;104619;1333;37138;-71
2022/12/10 00:50:56;;;;;;;78.40;43.40;;;;;;;1.58;82.27;99609.48;104494;1332;36481;-71
2022/12/10 00:53:31;;;;;;;73.00;41.20;;;;;;;1.54;82.12;99611.24;104482;1332;37514;-71
2022/12/10 00:56:05;;;;;;;70.00;40.00;;;;;;;1.52;82.39;99608.35;104496;1329;37280;-71
2022/12/10 00:58:39;;;;;;;69.10;39.30;;;;;;;1.55;82.51;99609.69;104588;1330;37140;-71
2022/12/10 01:01:16;;;;;;;69.40;41.70;;;;;;;1.56;82.30;99609.86;104480;1332;37236;-71
2022/12/10 01:03:51;;;;;;;68.50;41.50;;;;;;;1.59;82.56;99609.83;104483;1333;36212;-71
2022/12/10 01:06:26;;;;;;;68.60;42.40;;;;;;;1.65;82.61;99612.66;104460;1333;36279;-71
2022/12/10 01:09:02;;;;;;;71.60;41.10;;;;;;;1.67;82.55;99614.52;104471;1330;36942;-71
2022/12/10 01:11:38;;;;;;;65.00;38.10;;;;;;;1.67;82.49;99606.42;104479;1333;37049;-71
2022/12/10 01:14:13;;;;;;;64.60;39.50;;;;;;;1.67;82.27;99606.27;104478;1332;37492;-71
2022/12/10 01:16:47;;;;;;;70.40;41.10;;;;;;;1.66;82.17;99606.79;104406;1333;37353;-71
2022/12/10 01:19:21;;;;;;;71.50;41.70;;;;;;;1.63;82.24;99608.38;104644;1333;36707;-71
2022/12/10 01:21:55;;;;;;;70.50;40.20;;;;;;;1.64;82.42;99608.73;104476;1332;37480;-71
2022/12/10 01:24:30;;;;;;;69.00;39.10;;;;;;;1.65;82.39;99603.54;104452;1331;37959;-71
2022/12/10 01:27:03;;;;;;;72.40;41.50;;;;;;;1.65;82.40;99600.27;104479;1332;36347;-71
2022/12/10 01:29:37;;;;;;;67.40;40.10;;;;;;;1.70;82.41;99599.68;104630;1333;38359;-71
2022/12/10 01:32:11;;;;;;;70.80;40.70;;;;;;;1.73;82.33;99599.98;104489;1333;37231;-71
2022/12/10 01:34:45;;;;;;;74.00;41.30;;;;;;;1.71;82.22;99600.88;104442;1333;37437;-71
2022/12/10 01:37:19;;;;;;;72.60;41.80;;;;;;;1.64;82.07;99596.16;104602;1332;36729;-71
2022/12/10 01:39:53;;;;;;;70.10;39.30;;;;;;;1.61;82.22;99586.74;104636;1333;37127;-71
2022/12/10 01:42:27;;;;;;;67.90;39.10;;;;;;;1.62;82.44;99581.58;104615;1333;38414;-71
2022/12/10 01:45:15;;;;;;;65.90;38.10;;;;;;;1.62;82.34;99578.83;104412;1330;36551;-71
2022/12/10 01:47:49;;;;;;;76.30;41.70;;;;;;;1.61;82.26;99578.16;104465;1332;37172;-71
2022/12/10 01:50:23;;;;;;;74.00;42.60;;;;;;;1.59;82.41;99577.67;104497;1333;37276;-71
2022/12/10 01:52:57;;;;;;;76.20;41.60;;;;;;;1.62;82.63;99574.70;104499;1332;37224;-72
2022/12/10 01:55:48;;;;;;;73.00;41.50;;;;;;;1.68;82.78;99571.02;104469;1333;37227;-72
2022/12/10 01:58:22;;;;;;;69.80;40.70;;;;;;;1.74;82.73;99569.38;104619;1333;36154;-72
2022/12/10 02:01:07;;;;;;;73.30;42.70;;;;;;;1.75;82.55;99570.21;104502;1333;37513;-72
2022/12/10 02:03:58;;;;;;;74.90;44.10;;;;;;;1.75;82.49;99573.65;104482;1333;36227;-72
2022/12/10 02:06:42;;;;;;;71.30;40.80;;;;;;;1.72;82.46;99578.85;104514;1330;37244;-72
2022/12/10 02:09:24;;;;;;;71.60;39.90;;;;;;;1.70;82.28;99582.14;104489;1330;38423;-72
2022/12/10 02:12:06;;;;;;;69.80;39.60;;;;;;;1.68;82.35;99582.54;104502;1331;37482;-72
2022/12/10 02:14:48;;;;;;;74.00;43.10;;;;;;;1.76;82.69;99582.21;104499;1333;37344;-72
2022/12/10 02:17:25;;;;;;;74.70;43.20;;;;;;;1.80;82.65;99584.06;104640;1330;37445;-72
2022/12/10 02:20:08;;;;;;;69.20;40.20;;;;;;;1.80;82.54;99588.35;104495;1332;37795;-72
2022/12/10 02:22:45;;;;;;;69.50;38.80;;;;;;;1.78;82.37;99584.60;104593;1333;37268;-72
2022/12/10 02:25:21;;;;;;;70.00;39.30;;;;;;;1.77;82.17;99583.23;104479;1333;37825;-72
2022/12/10 02:28:00;;;;;;;69.00;41.70;;;;;;;1.77;82.11;99576.89;104503;1333;37223;-72
2022/12/10 02:30:34;;;;;;;70.70;41.00;;;;;;;1.81;82.46;99577.68;104482;1333;37193;-72
2022/12/10 02:33:08;;;;;;;69.10;40.20;;;;;;;1.81;82.39;99575.63;104487;1333;37769;-72
2022/12/10 02:35:42;;;;;;;67.70;38.10;;;;;;;1.80;82.22;99586.82;104483;1318;37508;-71
2022/12/10 02:38:18;;;;;;;66.30;37.60;;;;;;;1.79;82.17;99589.41;104604;1334;36141;-71
2022/12/10 02:40:54;;;;;;;68.90;40.20;;;;;;;1.83;82.37;99588.15;104490;1332;36368;-71
2022/12/10 02:43:28;;;;;;;68.40;38.60;;;;;;;1.83;82.19;99588.15;104475;1333;36916;-71
2022/12/10 02:46:03;;;;;;;63.50;36.80;;;;;;;1.78;82.14;99587.35;104469;1329;36218;-71
2022/12/10 02:48:37;;;;;;;64.00;36.30;;;;;;;1.75;82.13;99582.25;104463;1332;37321;-71
2022/12/10 02:51:11;;;;;;;64.60;37.30;;;;;;;1.76;82.13;99583.78;104635;1333;37164;-71
2022/12/10 02:53:47;;;;;;;68.70;38.30;;;;;;;1.74;82.07;99581.75;104616;1333;36607;-71
2022/12/10 02:56:24;;;;;;;66.40;38.90;;;;;;;1.76;82.37;99586.02;104422;1333;39296;-71
2022/12/10 02:59:07;;;;;;;66.80;38.60;;;;;;;1.74;82.32;99588.78;104469;1333;37275;-71
2022/12/10 03:01:46;;;;;;;64.50;36.40;;;;;;;1.72;82.13;99593.64;104470;1329;36388;-71
2022/12/10 03:04:23;;;;;;;64.50;36.30;;;;;;;1.70;82.14;99591.95;104483;1329;37252;-71
2022/12/10 03:06:59;;;;;;;64.70;38.00;;;;;;;1.67;82.31;99592.85;104596;1333;37154;-71
2022/12/10 03:09:35;;;;;;;72.90;39.40;;;;;;;1.67;82.50;99588.04;104618;1333;37237;-71
2022/12/10 03:12:13;;;;;;;64.70;36.60;;;;;;;1.66;82.35;99578.94;104470;1329;37279;-71
2022/12/10 03:14:47;;;;;;;65.00;35.40;;;;;;;1.64;82.40;99574.33;104465;1330;36602;-71
2022/12/10 03:17:21;;;;;;;63.40;35.90;;;;;;;1.69;82.72;99575.45;104466;1332;37501;-71
2022/12/10 03:19:55;;;;;;;65.90;39.30;;;;;;;1.72;82.60;99580.40;104481;1333;37790;-71
2022/12/10 03:22:29;;;;;;;70.00;38.50;;;;;;;1.75;82.47;99582.23;104463;1332;37212;-71
2022/12/10 03:25:02;;;;;;;71.80;39.40;;;;;;;1.79;82.70;99584.94;104494;1318;37541;-71
2022/12/10 03:27:36;;;;;;;66.00;37.50;;;;;;;1.79;82.33;99585.80;104454;1329;37639;-71
2022/12/10 03:30:12;;;;;;;65.90;37.60;;;;;;;1.74;82.21;99582.77;104455;1333;37266;-71
2022/12/10 03:32:46;;;;;;;68.70;38.30;;;;;;;1.68;82.16;99581.14;104465;1332;36886;-71
2022/12/10 03:35:22;;;;;;;66.10;37.90;;;;;;;1.67;82.43;99583.73;104464;1332;37325;-71
2022/12/10 03:37:55;;;;;;;65.60;37.00;;;;;;;1.66;82.39;99586.17;104628;1333;37236;-71
2022/12/10 03:40:29;;;;;;;65.70;35.30;;;;;;;1.66;82.56;99585.13;104480;1332;37276;-71
2022/12/10 03:43:03;;;;;;;68.30;36.80;;;;;;;1.65;82.43;99579.98;104458;1332;37278;-71
2022/12/10 03:45:37;;;;;;;67.60;38.20;;;;;;;1.66;82.78;99581.34;104621;1333;36793;-71
2022/12/10 03:48:11;;;;;;;71.80;38.50;;;;;;;1.69;82.63;99584.91;104489;1329;37745;-71
2022/12/10 03:50:45;;;;;;;70.60;36.30;;;;;;;1.66;82.60;99590.45;104471;1332;37371;-71
2022/12/10 03:53:18;;;;;;;67.40;37.10;;;;;;;1.65;82.58;99587.73;104482;1329;37462;-71
2022/12/10 03:55:52;;;;;;;65.20;37.40;;;;;;;1.65;82.66;99585.67;103849;1332;906738;-71
2022/12/10 03:58:26;;;;;;;65.10;36.90;;;;;;;1.65;82.45;99586.36;104373;1332;174227;-71
2022/12/10 04:01:00;;;;;;;69.70;39.40;;;;;;;1.63;82.39;99584.50;104482;1333;38402;-71
2022/12/10 04:03:36;;;;;;;69.30;38.30;;;;;;;1.61;82.37;99585.90;104648;1333;37147;-71
2022/12/10 04:06:12;;;;;;;67.60;35.10;;;;;;;1.58;82.44;99585.06;104473;1333;37361;-71
2022/12/10 04:08:46;;;;;;;62.50;35.10;;;;;;;1.55;82.51;99588.54;104621;1333;37184;-71
2022/12/10 04:11:20;;;;;;;66.80;36.10;;;;;;;1.54;82.72;99590.28;104452;1333;38472;-71
2022/12/10 04:16:46;;;;;;;68.30;36.60;;;;;;;1.60;82.95;99584.02;104475;1332;37223;-71
2022/12/10 04:19:20;;;;;;;68.50;37.50;;;;;;;1.64;83.02;99585.85;104471;1333;37266;-71
2022/12/10 04:27:39;;;;;;;61.10;33.10;;;;;;;1.62;82.87;99591.89;104486;1332;38565;-71
2022/12/10 04:30:14;;;;;;;65.50;35.60;;;;;;;1.58;82.65;99591.60;104500;1332;37211;-71
2022/12/10 04:32:49;;;;;;;64.70;34.20;;;;;;;1.58;82.80;99591.95;104486;1333;37241;-71
2022/12/10 04:35:23;;;;;;;72.40;38.00;;;;;;;1.61;82.89;99592.41;104475;1332;37991;-71
2022/12/10 04:37:56;;;;;;;70.40;37.80;;;;;;;1.66;82.97;99595.27;104524;1334;172289;-71
2022/12/10 04:40:30;;;;;;;70.30;38.10;;;;;;;1.67;82.88;99597.66;104459;1333;37626;-71
2022/12/10 04:43:04;;;;;;;63.70;34.90;;;;;;;1.66;82.82;99594.42;104465;1332;37233;-71
2022/12/10 04:45:39;;;;;;;68.80;35.50;;;;;;;1.61;82.60;99594.83;104599;1333;36488;-71
2022/12/10 04:48:13;;;;;;;70.90;38.20;;;;;;;1.62;82.74;99593.96;104467;1331;37214;-71
2022/12/10 04:50:48;;;;;;;67.10;35.80;;;;;;;1.65;82.86;99593.23;104587;1333;37131;-71
2022/12/10 04:53:23;;;;;;;70.20;34.40;;;;;;;1.62;82.69;99593.44;104594;1334;36275;-72
2022/12/10 04:55:56;;;;;;;69.20;34.40;;;;;;;1.59;82.77;99593.48;104468;1329;37200;-72
2022/12/10 04:58:30;;;;;;;65.70;34.60;;;;;;;1.60;82.94;99592.95;104466;1332;37953;-72
2022/12/10 05:01:07;;;;;;;65.00;32.90;;;;;;;1.63;82.73;99591.89;104329;1330;395675;-72
2022/12/10 05:03:42;;;;;;;62.60;31.60;;;;;;;1.61;82.62;99597.59;104483;1329;37368;-72
2022/12/10 05:06:16;;;;;;;67.40;35.00;;;;;;;1.58;82.78;99599.69;104596;1333;37163;-72
2022/12/10 05:08:50;;;;;;;69.00;34.40;;;;;;;1.57;82.69;99600.56;104630;1333;37245;-73
2022/12/10 05:11:26;;;;;;;65.60;33.60;;;;;;;1.53;82.64;99599.91;104447;1332;38715;-72
2022/12/10 05:14:01;;;;;;;64.20;32.20;;;;;;;1.49;82.64;99600.33;104642;1333;37106;-72
2022/12/10 05:16:35;;;;;;;63.00;32.00;;;;;;;1.47;82.84;99600.88;104649;1333;36806;-72
2022/12/10 05:19:09;;;;;;;66.30;32.30;;;;;;;1.46;82.91;99607.58;104452;1333;37178;-72
2022/12/10 05:24:34;;;;;;;70.40;36.10;;;;;;;1.58;83.11;99615.67;104480;1333;38000;-72
2022/12/10 05:27:08;;;;;;;65.90;34.10;;;;;;;1.58;82.89;99617.23;104455;1333;36745;-72
2022/12/10 05:29:42;;;;;;;65.50;32.10;;;;;;;1.53;82.64;99615.39;104469;1333;37192;-72
2022/12/10 05:32:16;;;;;;;62.40;32.20;;;;;;;1.52;82.88;99620.39;104476;1332;37296;-72
2022/12/10 05:34:50;;;;;;;58.90;31.10;;;;;;;1.50;82.68;99622.15;104376;1333;172301;-72
2022/12/10 05:37:23;;;;;;;58.10;30.10;;;;;;;1.44;82.70;99629.08;104478;1333;37333;-73
2022/12/10 05:39:58;;;;;;;60.50;32.30;;;;;;;1.46;82.86;99630.43;104610;1333;37169;-73
2022/12/10 05:42:32;;;;;;;54.50;29.30;;;;;;;1.46;82.83;99631.81;104479;1332;37179;-72
2022/12/10 05:45:07;;;;;;;55.70;30.30;;;;;;;1.46;82.57;99634.92;104492;1333;37190;-72
2022/12/10 05:47:42;;;;;;;59.50;30.80;;;;;;;1.41;82.36;99636.52;104468;1329;37317;-72
2022/12/10 05:50:23;;;;;;;55.50;28.10;;;;;;;1.36;82.42;99632.30;104489;1333;37266;-72
2022/12/10 05:52:59;;;;;;;48.50;26.20;;;;;;;1.36;82.55;99630.92;104484;1332;37406;-72
2022/12/10 05:55:34;;;;;;;50.70;26.90;;;;;;;1.35;82.70;99628.54;104420;1333;37865;-72
2022/12/10 05:58:07;;;;;;;48.00;26.00;;;;;;;1.31;82.43;99627.55;104639;1333;36167;-72
2022/12/10 06:00:43;;;;;;;54.00;29.40;;;;;;;1.30;82.63;99624.30;104472;1333;36767;-72
2022/12/10 06:03:17;;;;;;;53.40;29.10;;;;;;;1.30;82.61;99624.98;104474;1332;37237;-72
2022/12/10 06:05:51;;;;;;;49.90;26.60;;;;;;;1.32;82.89;99626.15;104472;1332;37347;-72
2022/12/10 06:08:25;;;;;;;48.30;26.40;;;;;;;1.32;82.64;99631.31;104602;1332;36672;-72
2022/12/10 06:10:59;;;;;;;46.70;25.70;;;;;;;1.32;82.43;99636.81;104444;1333;37783;-73
2022/12/10 06:13:33;;;;;;;45.60;24.50;;;;;;;1.29;82.42;99636.68;104457;1332;38635;-73
2022/12/10 06:16:10;;;;;;;50.90;26.70;;;;;;;1.29;82.48;99637.36;104464;1332;37183;-72
2022/12/10 06:18:44;;;;;;;49.50;27.60;;;;;;;1.31;82.51;99636.13;104498;1333;36751;-72
2022/12/10 06:21:19;;;;;;;49.90;27.00;;;;;;;1.29;82.30;99634.09;104411;1335;37141;-72
2022/12/10 06:23:53;;;;;;;50.40;24.80;;;;;;;1.27;82.32;99636.52;104198;1336;37260;-72
2022/12/10 06:26:27;;;;;;;46.80;24.20;;;;;;;1.29;82.49;99638.90;104255;1336;37970;-72
2022/12/10 06:29:01;;;;;;;44.70;24.40;;;;;;;1.28;82.25;99642.52;104250;1336;37287;-72
2022/12/10 06:31:35;;;;;;;42.50;24.00;;;;;;;1.27;82.30;99644.25;104249;1336;37362;-72
2022/12/10 06:34:09;;;;;;;44.80;24.60;;;;;;;1.28;82.26;99646.48;104270;1336;38667;-72
2022/12/10 06:36:43;;;;;;;44.70;23.20;;;;;;;1.29;82.32;99655.55;104407;1337;37978;-73
2022/12/10 06:39:18;;;;;;;45.90;24.30;;;;;;;1.27;82.28;99650.95;104181;1336;37918;-74
2022/12/10 06:41:52;;;;;;;45.70;23.00;;;;;;;1.27;82.28;99652.67;104275;1336;36968;-73
2022/12/10 06:44:27;;;;;;;44.00;23.80;;;;;;;1.30;82.47;99654.36;104277;1336;36563;-72
2022/12/10 06:47:01;;;;;;;46.70;25.30;;;;;;;1.31;82.35;99653.14;104273;1335;36467;-72
2022/12/10 06:49:35;;;;;;;48.10;26.20;;;;;;;1.32;82.39;99661.20;104277;1336;37765;-72
2022/12/10 06:52:10;;;;;;;48.10;25.60;;;;;;;1.35;82.56;99662.03;104193;1336;37828;-73
2022/12/10 06:54:45;;;;;;;49.40;26.30;;;;;;;1.36;82.53;99666.64;104268;1335;38878;-73
2022/12/10 06:57:19;;;;;;;46.90;24.90;;;;;;;1.37;82.49;99667.50;104264;1334;38589;-73
2022/12/10 06:59:53;;;;;;;46.30;24.90;;;;;;;1.37;82.38;99670.08;104197;1336;37470;-73
2022/12/10 07:02:29;;;;;;;52.40;28.00;;;;;;;1.37;82.44;99672.83;104241;1335;37201;-73
2022/12/10 07:05:03;;;;;;;51.20;27.90;;;;;;;1.38;82.42;99667.15;104198;1332;37267;-72
2022/12/10 07:07:37;;;;;;;54.00;27.60;;;;;;;1.36;82.56;99665.80;104257;1336;38823;-72
2022/12/10 07:10:12;;;;;;;53.20;27.30;;;;;;;1.38;82.52;99667.48;104253;1332;37234;-72
2022/12/10 07:12:47;;;;;;;54.30;27.10;;;;;;;1.36;82.48;99669.91;104405;1337;37110;-72
2022/12/10 07:15:23;;;;;;;53.30;26.10;;;;;;;1.38;82.43;99666.45;104420;1336;37136;-72
2022/12/10 07:17:57;;;;;;;59.10;29.70;;;;;;;1.37;82.48;99660.80;104172;1336;37207;-72
2022/12/10 07:20:32;;;;;;;56.10;29.00;;;;;;;1.37;82.67;99659.26;104427;1332;37222;-72
2022/12/10 07:23:07;;;;;;;55.20;28.20;;;;;;;1.38;82.74;99658.04;104472;1332;36243;-72
2022/12/10 07:25:41;;;;;;;52.50;27.30;;;;;;;1.40;82.62;99660.92;104396;1334;36737;-72
2022/12/10 07:28:15;;;;;;;54.80;28.90;;;;;;;1.39;82.60;99664.39;104467;1332;37230;-72
2022/12/10 07:30:49;;;;;;;54.50;28.90;;;;;;;1.42;82.78;99668.30;104581;1333;37213;-72
2022/12/10 07:33:23;;;;;;;56.40;28.40;;;;;;;1.44;82.67;99664.50;104460;1332;37159;-72
2022/12/10 07:36:00;;;;;;;61.30;31.40;;;;;;;1.48;82.87;99664.80;104372;1333;172293;-72
2022/12/10 07:38:34;;;;;;;55.00;28.60;;;;;;;1.49;82.81;99665.81;104457;1332;37335;-72
2022/12/10 07:41:09;;;;;;;56.00;28.00;;;;;;;1.52;82.82;99663.37;104483;1332;38482;-72
2022/12/10 07:43:44;;;;;;;54.80;28.20;;;;;;;1.51;82.71;99666.48;104498;1333;38484;-72
2022/12/10 07:46:20;;;;;;;52.30;26.40;;;;;;;1.51;82.64;99670.59;104520;1333;37332;-72
2022/12/10 07:48:55;;;;;;;55.40;29.00;;;;;;;1.53;82.82;99673.84;104478;1329;37199;-73
2022/12/10 07:51:29;;;;;;;57.10;29.40;;;;;;;1.54;82.63;99675.89;104467;1333;38440;-72
2022/12/10 07:54:03;;;;;;;48.60;27.20;;;;;;;1.53;82.84;99675.20;104644;1333;37160;-72
2022/12/10 07:56:37;;;;;;;52.90;27.70;;;;;;;1.49;82.58;99678.34;104456;1332;36237;-72
2022/12/10 07:59:12;;;;;;;49.90;25.40;;;;;;;1.50;82.80;99675.77;104485;1329;37273;-73
2022/12/10 08:01:46;;;;;;;47.60;25.50;;;;;;;1.56;82.82;99671.55;104449;1329;37193;-73
2022/12/10 08:04:19;;;;;;;48.10;25.90;;;;;;;1.57;82.60;99667.42;104468;1329;37867;-72
2022/12/10 08:06:56;;;;;;;48.80;26.20;;;;;;;1.57;82.78;99667.08;104628;1332;36615;-73
2022/12/10 08:09:30;;;;;;;46.10;23.50;;;;;;;1.60;82.76;99669.97;104625;1330;37137;-73
2022/12/10 08:12:04;;;;;;;45.70;23.20;;;;;;;1.60;82.78;99671.52;104615;1333;36723;-72
2022/12/10 08:14:39;;;;;;;42.70;21.70;;;;;;;1.59;82.47;99668.08;104462;1332;37230;-72
2022/12/10 08:17:14;;;;;;;40.50;22.20;;;;;;;1.56;82.62;99667.79;104473;1332;37255;-73
2022/12/10 08:19:51;;;;;;;41.30;21.90;;;;;;;1.56;82.46;99667.79;104475;1329;37284;-72
2022/12/10 08:22:26;;;;;;;43.00;23.70;;;;;;;1.53;82.58;99667.65;104485;1332;37236;-73
2022/12/10 08:25:01;;;;;;;42.40;22.40;;;;;;;1.52;82.64;99673.33;104402;1333;37564;-72
2022/12/10 08:27:36;;;;;;;40.40;21.80;;;;;;;1.54;82.74;99670.38;104467;1332;38098;-71
2022/12/10 08:30:14;;;;;;;47.60;28.50;;;;;;;1.55;82.80;99667.96;104479;1330;37293;-73
2022/12/10 08:32:51;;;;;;;40.20;23.80;;;;;;;1.59;82.82;99666.20;104457;1333;37474;-72
2022/12/10 08:35:26;;;;;;;37.50;20.10;;;;;;;1.61;82.84;99662.73;104541;1333;37162;-72
2022/12/10 08:38:04;;;;;;;49.80;26.70;;;;;;;1.64;82.68;99664.41;104483;1332;37249;-72
2022/12/10 08:40:41;;;;;;;55.00;29.40;;;;;;;1.68;82.83;99664.54;104462;1332;37372;-72
2022/12/10 08:43:18;;;;;;;48.90;27.50;;;;;;;1.67;82.70;99661.27;104555;1333;37050;-72
2022/12/10 08:45:56;;;;;;;39.60;20.10;;;;;;;1.68;82.86;99662.46;104422;1333;37120;-72
2022/12/10 08:48:30;;;;;;;37.30;19.90;;;;;;;1.71;82.79;99665.02;104432;1333;37085;-72
2022/12/10 08:51:04;;;;;;;33.40;19.10;;;;;;;1.72;82.82;99668.09;104597;1330;37125;-72
2022/12/10 08:53:39;;;;;;;38.50;21.50;;;;;;;1.75;82.71;99671.31;104478;1333;37019;-72
2022/12/10 08:56:13;;;;;;;37.80;21.20;;;;;;;1.75;82.68;99668.73;104591;1333;37142;-73
2022/12/10 08:58:48;;;;;;;37.20;19.90;;;;;;;1.75;82.53;99665.28;104479;1330;37411;-73
2022/12/10 09:01:22;;;;;;;35.80;19.00;;;;;;;1.74;82.41;99671.16;104602;1333;36152;-72
2022/12/10 09:03:56;;;;;;;36.90;19.20;;;;;;;1.71;82.53;99673.08;104622;1333;37258;-72
2022/12/10 09:06:31;;;;;;;35.80;19.70;;;;;;;1.71;82.58;99672.39;104619;1333;37226;-73
2022/12/10 09:09:06;;;;;;;35.90;19.90;;;;;;;1.71;82.58;99672.75;104632;1332;37619;-72
2022/12/10 09:11:41;;;;;;;40.20;21.40;;;;;;;1.72;82.65;99675.81;104482;1333;37300;-72
2022/12/10 09:14:15;;;;;;;36.00;20.10;;;;;;;1.73;82.60;99674.95;104492;1333;37155;-72
2022/12/10 09:16:50;;;;;;;35.80;19.60;;;;;;;1.71;82.56;99680.15;104489;1332;38714;-72
2022/12/10 09:19:28;;;;;;;34.40;18.70;;;;;;;1.71;82.61;99688.73;104492;1332;38378;-72
2022/12/10 09:22:02;;;;;;;38.70;20.90;;;;;;;1.75;82.83;99689.73;104656;1333;37121;-72
2022/12/10 09:24:37;;;;;;;36.20;19.90;;;;;;;1.79;82.97;99688.64;104426;1333;37476;-72
2022/12/10 09:27:13;;;;;;;37.50;20.70;;;;;;;1.81;82.92;99690.49;104614;1333;38489;-72
2022/12/10 09:29:50;;;;;;;39.20;19.50;;;;;;;1.82;82.71;99691.52;104467;1333;38869;-72
2022/12/10 09:32:25;;;;;;;38.40;19.50;;;;;;;1.80;82.76;99686.37;104466;1332;37224;-74
2022/12/10 09:35:00;;;;;;;37.10;19.70;;;;;;;1.82;82.88;99685.33;104644;1333;37374;-73
2022/12/10 09:37:34;;;;;;;34.80;19.80;;;;;;;1.83;82.57;99681.36;104491;1329;37313;-73
2022/12/10 09:40:11;;;;;;;39.30;20.80;;;;;;;1.83;82.63;99677.92;104429;1334;37274;-73
2022/12/10 09:42:52;;;;;;;37.90;21.20;;;;;;;1.86;82.85;99674.95;104444;1333;37232;-73
2022/12/10 09:45:31;;;;;;;38.20;21.20;;;;;;;1.85;82.78;99668.94;104473;1332;37245;-73
2022/12/10 09:48:13;;;;;;;34.70;18.60;;;;;;;1.89;82.90;99670.27;104638;1333;37931;-73
2022/12/10 09:50:52;;;;;;;36.90;19.70;;;;;;;1.92;82.81;99672.46;104597;1333;36220;-73
2022/12/10 09:53:27;;;;;;;34.90;19.00;;;;;;;1.94;82.67;99669.16;104471;1333;36308;-73
2022/12/10 09:56:01;;;;;;;37.80;20.90;;;;;;;1.94;82.62;99670.20;104503;1332;37394;-73
2022/12/10 09:58:36;;;;;;;40.40;21.70;;;;;;;1.94;82.58;99669.84;104478;1333;37270;-73
2022/12/10 10:01:14;;;;;;;36.30;20.30;;;;;;;1.98;82.84;99672.20;104586;1329;37266;-72
2022/12/10 10:03:49;;;;;;;38.50;20.70;;;;;;;2.01;82.85;99675.41;104494;1332;37519;-72
2022/12/10 10:06:25;;;;;;;39.60;19.90;;;;;;;2.05;82.63;99687.22;104496;1332;37138;-73
2022/12/10 10:09:06;;;;;;;39.90;19.70;;;;;;;2.09;82.54;99692.17;104505;1333;37257;-73
2022/12/10 10:11:41;;;;;;;37.00;20.50;;;;;;;2.08;82.29;99693.91;104617;1333;37136;-72
2022/12/10 10:14:19;;;;;;;38.70;21.90;;;;;;;2.09;82.41;99692.70;104464;1332;38879;-72
2022/12/10 10:16:55;;;;;;;37.80;19.70;;;;;;;2.08;82.28;99693.55;104487;1333;36728;-72
2022/12/10 10:19:32;;;;;;;36.30;19.50;;;;;;;2.06;82.20;99690.66;104468;1329;37259;-72
2022/12/10 10:22:07;;;;;;;39.70;19.80;;;;;;;2.09;82.46;99685.82;104458;1332;37335;-72
2022/12/10 10:24:42;;;;;;;38.00;20.50;;;;;;;2.12;82.25;99686.80;104477;1332;36254;-73
2022/12/10 10:27:19;;;;;;;41.50;21.30;;;;;;;2.13;82.28;99694.02;104519;1332;37319;-73
2022/12/10 10:29:56;;;;;;;40.20;20.70;;;;;;;2.08;82.23;99688.73;104416;1333;37619;-74
2022/12/10 10:32:47;;;;;;;38.00;20.20;;;;;;;2.08;82.19;99688.40;104635;1333;38276;-73
2022/12/10 10:35:32;;;;;;;39.10;20.60;;;;;;;2.10;82.46;99688.89;104503;1332;37611;-72
2022/12/10 10:38:14;;;;;;;37.60;20.00;;;;;;;2.15;82.45;99682.63;104665;1333;37458;-74
2022/12/10 10:40:51;;;;;;;39.20;21.40;;;;;;;2.18;82.61;99681.20;104509;1332;37603;-74
2022/12/10 10:43:28;;;;;;;40.30;20.70;;;;;;;2.21;82.26;99680.64;104507;1333;36264;-73
2022/12/10 10:46:04;;;;;;;37.40;19.90;;;;;;;2.17;81.83;99671.05;104615;1333;37409;-73
2022/12/10 10:48:39;;;;;;;35.60;19.60;;;;;;;2.10;81.80;99668.76;104500;1332;37349;-73
2022/12/10 10:51:23;;;;;;;38.40;19.40;;;;;;;2.10;82.18;99664.80;104490;1332;36979;-73
2022/12/10 10:53:59;;;;;;;38.50;20.40;;;;;;;2.12;82.29;99658.41;104626;1333;36220;-74
2022/12/10 10:56:41;;;;;;;38.40;20.10;;;;;;;2.18;82.43;99651.61;104657;1333;37298;-73
2022/12/10 10:59:32;;;;;;;38.80;19.60;;;;;;;2.27;82.36;99648.55;104488;1333;37217;-72
2022/12/10 11:02:19;;;;;;;35.50;19.20;;;;;;;2.24;81.72;99648.92;104483;1333;37593;-73
2022/12/10 11:04:54;;;;;;;35.10;18.00;;;;;;;2.23;82.18;99645.17;104416;1331;37180;-74
2022/12/10 11:07:36;;;;;;;40.40;21.20;;;;;;;2.24;81.83;99643.61;104637;1333;37162;-75
2022/12/10 11:10:21;;;;;;;46.20;23.00;;;;;;;2.22;82.04;99639.48;104657;1330;38285;-73
2022/12/10 11:13:04;;;;;;;43.20;23.00;;;;;;;2.26;82.29;99637.19;104480;1332;37251;-73
2022/12/10 11:15:41;;;;;;;42.30;22.30;;;;;;;2.31;82.19;99636.61;104487;1332;37234;-74
2022/12/10 11:18:30;;;;;;;41.30;21.20;;;;;;;2.30;81.91;99633.86;104484;1329;37215;-75
2022/12/10 11:21:09;;;;;;;40.00;21.40;;;;;;;2.29;82.00;99634.90;104494;1332;37189;-74
2022/12/10 11:23:46;;;;;;;41.50;22.50;;;;;;;2.30;82.04;99637.29;104482;1332;37534;-72
2022/12/10 11:26:52;;;;;;;41.10;22.20;;;;;;;2.34;82.08;99636.55;104631;1333;36762;-73
2022/12/10 11:29:50;;;;;;;41.20;21.10;;;;;;;2.33;81.95;99632.95;104584;1333;37124;-73
2022/12/10 11:32:35;;;;;;;43.30;22.30;;;;;;;2.32;81.64;99632.27;104638;1333;36886;-73
2022/12/10 11:35:16;;;;;;;42.40;20.40;;;;;;;2.32;81.86;99629.88;104465;1332;38685;-74
2022/12/10 11:37:58;;;;;;;39.70;20.60;;;;;;;2.30;81.63;99626.29;104495;1329;37436;-73
2022/12/10 11:40:43;;;;;;;40.20;20.60;;;;;;;2.30;81.67;99623.02;104472;1332;38445;-73
2022/12/10 11:43:48;;;;;;;43.00;22.00;;;;;;;2.29;81.70;99622.86;104487;1329;37270;-73
2022/12/10 11:46:44;;;;;;;49.00;22.20;;;;;;;2.31;81.69;99628.86;104458;1332;36250;-73
2022/12/10 11:49:26;;;;;;;47.00;22.90;;;;;;;2.26;81.56;99629.63;104483;1333;37317;-73
2022/12/10 11:52:05;;;;;;;44.40;22.50;;;;;;;2.22;81.44;99628.13;104501;1332;38911;-73
2022/12/10 11:55:00;;;;;;;41.30;19.70;;;;;;;2.18;81.46;99627.34;104639;1333;37228;-73
2022/12/10 11:57:44;;;;;;;43.40;20.90;;;;;;;2.13;81.37;99630.52;104650;1331;37506;-73
2022/12/10 12:00:24;;;;;;;38.40;19.40;;;;;;;2.16;81.54;99630.48;104489;1332;36363;-73
2022/12/10 12:03:26;;;;;;;43.50;22.00;;;;;;;2.14;81.37;99632.91;104419;1333;37634;-73
2022/12/10 12:06:12;;;;;;;48.20;21.90;;;;;;;2.11;81.43;99637.44;104554;1333;37233;-73
2022/12/10 12:08:52;;;;;;;44.00;20.80;;;;;;;2.11;81.55;99640.70;104612;1333;37147;-73
2022/12/10 12:11:34;;;;;;;44.30;21.40;;;;;;;2.12;81.58;99642.08;104637;1333;37497;-73